createdAt,value
2023-03-18T00:01:11.053Z,4.30
2023-03-18T00:03:38.785Z,3.67
2023-03-18T00:06:13.094Z,4.13
2023-03-18T00:08:42.363Z,4.13
2023-03-18T00:11:14.156Z,3.47
2023-03-18T00:13:42.459Z,3.20
2023-03-18T00:16:11.728Z,5.17
2023-03-18T00:18:40.236Z,5.67
2023-03-18T00:21:08.373Z,4.00
2023-03-18T00:23:36.257Z,3.67
2023-03-18T00:26:03.904Z,3.63
2023-03-18T00:28:31.621Z,3.80
2023-03-18T00:31:09.218Z,6.13
2023-03-18T00:33:38.512Z,7.70
2023-03-18T00:36:10.193Z,5.37
2023-03-18T00:38:37.719Z,4.17
2023-03-18T00:41:11.563Z,3.47
2023-03-18T00:44:03.576Z,3.73
2023-03-18T00:46:37.783Z,5.43
2023-03-18T00:49:07.882Z,7.30
2023-03-18T00:51:37.571Z,4.17
2023-03-18T00:54:08.445Z,5.63
2023-03-18T00:56:37.678Z,4.93
2023-03-18T00:59:07.117Z,7.07
2023-03-18T01:01:35.406Z,4.20
2023-03-18T01:04:04.402Z,4.57
2023-03-18T01:06:34.212Z,4.50
2023-03-18T01:09:04.585Z,3.40
2023-03-18T01:11:33.328Z,6.63
2023-03-18T01:14:01.078Z,6.23
2023-03-18T01:16:28.401Z,4.63
2023-03-18T01:18:56.406Z,5.07
2023-03-18T01:21:23.668Z,4.43
2023-03-18T01:23:55.880Z,8.47
2023-03-18T01:26:23.694Z,4.23
2023-03-18T01:28:50.985Z,4.97
2023-03-18T01:31:19.091Z,4.03
2023-03-18T01:33:47.822Z,4.63
2023-03-18T01:36:15.534Z,6.20
2023-03-18T01:38:43.541Z,6.03
2023-03-18T01:41:13.151Z,4.10
2023-03-18T01:43:43.115Z,5.00
2023-03-18T01:46:39.695Z,5.97
2023-03-18T01:49:27.022Z,5.63
2023-03-18T01:52:00.853Z,6.13
2023-03-18T01:54:32.185Z,5.13
2023-03-18T01:56:59.928Z,5.43
2023-03-18T01:59:30.389Z,6.47
2023-03-18T02:02:14.081Z,6.23
2023-03-18T02:04:46.072Z,7.50
2023-03-18T02:07:21.886Z,6.57
2023-03-18T02:09:51.380Z,6.80
2023-03-18T02:12:32.021Z,6.90
2023-03-18T02:15:06.046Z,5.20
2023-03-18T02:17:41.396Z,7.40
2023-03-18T02:20:34.233Z,6.03
2023-03-18T02:23:46.485Z,6.83
2023-03-18T02:26:44.496Z,8.13
2023-03-18T02:29:15.429Z,4.77
2023-03-18T02:31:50.967Z,6.77
2023-03-18T02:34:25.624Z,5.17
2023-03-18T02:36:55.174Z,6.10
2023-03-18T02:39:23.055Z,7.33
2023-03-18T02:41:53.339Z,6.47
2023-03-18T02:44:21.333Z,5.77
2023-03-18T02:47:17.911Z,6.03
2023-03-18T02:49:45.547Z,6.03
2023-03-18T02:52:14.602Z,6.67
2023-03-18T02:54:42.043Z,8.17
2023-03-18T02:57:09.419Z,7.00
2023-03-18T02:59:38.426Z,7.90
2023-03-18T03:02:06.413Z,6.23
2023-03-18T03:04:33.686Z,5.17
2023-03-18T03:07:02.149Z,6.77
2023-03-18T03:09:46.156Z,7.03
2023-03-18T03:12:14.799Z,7.23
2023-03-18T03:14:48.585Z,7.37
2023-03-18T03:17:16.579Z,8.17
2023-03-18T03:19:45.959Z,6.83
2023-03-18T03:22:17.343Z,6.30
2023-03-18T03:24:46.947Z,6.30
2023-03-18T03:27:14.941Z,6.80
2023-03-18T03:29:43.417Z,6.87
2023-03-18T03:32:10.789Z,9.87
2023-03-18T03:34:38.607Z,7.27
2023-03-18T03:37:06.671Z,6.83
2023-03-18T03:39:33.962Z,6.67
2023-03-18T03:42:01.157Z,6.10
2023-03-18T03:44:28.277Z,7.23
2023-03-18T03:46:55.454Z,7.40
2023-03-18T03:49:23.691Z,8.77
2023-03-18T03:51:51.064Z,7.77
2023-03-18T03:54:19.912Z,7.70
2023-03-18T03:57:07.838Z,8.73
2023-03-18T03:59:54.950Z,7.20
2023-03-18T04:03:01.154Z,7.30
2023-03-18T04:05:49.319Z,7.47
2023-03-18T04:08:40.060Z,7.27
2023-03-18T04:11:27.311Z,8.13
2023-03-18T04:14:14.571Z,7.43
2023-03-18T04:17:01.718Z,7.20
2023-03-18T04:19:49.598Z,8.17
2023-03-18T04:22:37.701Z,8.10
2023-03-18T04:25:27.463Z,8.30
2023-03-18T04:28:14.922Z,11.47
2023-03-18T04:31:02.030Z,8.80
2023-03-18T04:33:49.699Z,9.63
2023-03-18T04:36:36.781Z,10.30
2023-03-18T04:39:24.136Z,8.27
2023-03-18T04:42:11.517Z,7.50
2023-03-18T04:44:58.852Z,8.27
2023-03-18T04:47:46.234Z,8.90
2023-03-18T04:50:34.401Z,7.00
2023-03-18T04:53:22.668Z,7.03
2023-03-18T04:56:09.871Z,7.77
2023-03-18T04:59:07.126Z,8.67
2023-03-18T05:01:54.377Z,8.23
2023-03-18T05:04:41.532Z,10.50
2023-03-18T05:07:29.400Z,9.23
2023-03-18T05:10:23.178Z,8.30
2023-03-18T05:13:11.050Z,7.50
2023-03-18T05:15:59.156Z,10.37
2023-03-18T05:18:46.885Z,8.83
2023-03-18T05:21:32.513Z,10.27
2023-03-18T05:24:19.368Z,8.90
2023-03-18T05:27:06.828Z,9.87
2023-03-18T05:29:57.736Z,7.53
2023-03-18T05:32:57.139Z,8.13
2023-03-18T05:35:56.885Z,8.47
2023-03-18T05:38:48.604Z,8.27
2023-03-18T05:41:34.742Z,9.60
2023-03-18T05:44:20.732Z,10.00
2023-03-18T05:47:10.250Z,8.17
2023-03-18T05:50:11.044Z,8.37
2023-03-18T05:52:57.648Z,9.23
2023-03-18T05:55:44.718Z,8.77
2023-03-18T05:58:31.468Z,9.33
2023-03-18T06:01:33.072Z,9.03
2023-03-18T06:04:20.537Z,8.83
2023-03-18T06:07:06.796Z,10.03
2023-03-18T06:09:53.571Z,9.47
2023-03-18T06:12:40.162Z,12.27
2023-03-18T06:15:26.555Z,11.17
2023-03-18T06:18:13.776Z,11.17
2023-03-18T06:20:59.448Z,8.53
2023-03-18T06:23:45.288Z,6.57
2023-03-18T06:26:31.263Z,8.40
2023-03-18T06:29:18.273Z,9.03
2023-03-18T06:32:04.540Z,8.40
2023-03-18T06:34:50.609Z,8.67
2023-03-18T06:37:38.193Z,8.03
2023-03-18T06:40:24.748Z,7.77
2023-03-18T06:43:12.444Z,7.40
2023-03-18T06:46:01.167Z,8.10
2023-03-18T06:48:46.926Z,7.57
2023-03-18T06:51:37.892Z,9.67
2023-03-18T06:54:23.951Z,9.47
2023-03-18T06:57:10.384Z,9.87
2023-03-18T06:59:57.198Z,8.57
2023-03-18T07:02:43.373Z,9.60
2023-03-18T07:05:33.102Z,9.37
2023-03-18T07:08:19.048Z,9.70
2023-03-18T07:11:07.103Z,8.10
2023-03-18T07:13:55.189Z,9.00
2023-03-18T07:16:51.094Z,7.60
2023-03-18T07:19:38.686Z,8.93
2023-03-18T07:22:24.736Z,8.40
2023-03-18T07:25:11.416Z,10.40
2023-03-18T07:28:00.309Z,9.63
2023-03-18T07:30:47.027Z,8.23
2023-03-18T07:33:33.208Z,7.77
2023-03-18T07:36:19.500Z,8.63
2023-03-18T07:39:07.102Z,7.07
2023-03-18T07:41:52.519Z,7.97
2023-03-18T07:44:47.030Z,7.37
2023-03-18T07:47:32.947Z,8.70
2023-03-18T07:50:19.091Z,6.43
2023-03-18T07:53:04.733Z,7.20
2023-03-18T07:55:50.429Z,7.63
2023-03-18T07:58:37.352Z,8.40
2023-03-18T08:01:23.439Z,7.10
2023-03-18T08:04:09.763Z,6.60
2023-03-18T08:06:55.666Z,7.90
2023-03-18T08:09:58.492Z,8.27
2023-03-18T08:12:52.646Z,8.87
2023-03-18T08:15:40.897Z,7.37
2023-03-18T08:18:27.428Z,9.03
2023-03-18T08:21:13.626Z,7.90
2023-03-18T08:23:59.799Z,7.10
2023-03-18T08:26:46.263Z,8.20
2023-03-18T08:29:32.824Z,6.93
2023-03-18T08:32:19.743Z,6.27
2023-03-18T08:35:06.852Z,9.73
2023-03-18T08:37:53.896Z,6.83
2023-03-18T08:40:41.559Z,6.87
2023-03-18T08:43:28.501Z,6.27
2023-03-18T08:46:15.522Z,8.73
2023-03-18T08:49:02.210Z,9.17
2023-03-18T08:51:48.396Z,7.70
2023-03-18T08:54:35.244Z,7.23
2023-03-18T08:57:21.055Z,6.63
2023-03-18T09:00:08.538Z,7.50
2023-03-18T09:02:54.618Z,6.60
2023-03-18T09:05:40.831Z,10.03
2023-03-18T09:08:28.788Z,7.20
2023-03-18T09:11:16.333Z,9.40
2023-03-18T09:14:02.136Z,7.40
2023-03-18T09:16:48.340Z,8.50
2023-03-18T09:19:35.006Z,7.90
2023-03-18T09:22:21.740Z,9.80
2023-03-18T09:25:08.835Z,10.37
2023-03-18T09:27:54.851Z,11.13
2023-03-18T09:30:42.683Z,8.97
2023-03-18T09:33:28.843Z,9.87
2023-03-18T09:36:15.723Z,11.03
2023-03-18T09:39:01.637Z,10.00
2023-03-18T09:42:11.863Z,8.57
2023-03-18T09:45:06.892Z,9.83
2023-03-18T09:48:18.000Z,10.27
2023-03-18T09:51:19.447Z,8.90
2023-03-18T09:54:20.266Z,11.13
2023-03-18T09:57:16.494Z,10.53
2023-03-18T10:00:37.799Z,9.50
2023-03-18T10:03:42.691Z,11.27
2023-03-18T10:06:29.256Z,10.93
2023-03-18T10:09:36.728Z,11.80
2023-03-18T10:12:41.742Z,11.27
2023-03-18T10:15:49.155Z,11.10
2023-03-18T10:18:38.171Z,11.37
2023-03-18T10:22:02.026Z,11.10
2023-03-18T10:25:02.208Z,12.30
2023-03-18T10:28:18.349Z,12.07
2023-03-18T10:31:30.089Z,14.17
2023-03-18T10:34:19.881Z,12.43
2023-03-18T10:37:27.477Z,14.17
2023-03-18T10:40:18.655Z,13.83
2023-03-18T10:43:06.293Z,12.80
2023-03-18T10:46:07.488Z,14.60
2023-03-18T10:49:29.662Z,18.13
2023-03-18T10:52:45.512Z,15.90
2023-03-18T10:55:39.689Z,15.27
2023-03-18T10:58:27.323Z,18.10
2023-03-18T11:01:20.202Z,16.37
2023-03-18T11:04:13.220Z,17.83
2023-03-18T11:07:04.689Z,16.67
2023-03-18T11:09:51.214Z,16.80
2023-03-18T11:12:37.436Z,15.47
2023-03-18T11:15:25.241Z,14.07
2023-03-18T11:18:20.342Z,15.30
2023-03-18T11:21:13.283Z,15.70
2023-03-18T11:24:11.085Z,13.40
2023-03-18T11:26:57.987Z,15.53
2023-03-18T11:30:00.302Z,16.33
2023-03-18T11:32:59.704Z,15.27
2023-03-18T11:35:58.117Z,16.30
2023-03-18T11:38:44.822Z,15.53
2023-03-18T11:41:31.249Z,14.97
2023-03-18T11:44:31.389Z,14.03
2023-03-18T11:47:28.115Z,14.60
2023-03-18T11:50:22.742Z,15.77
2023-03-18T11:53:51.676Z,15.47
2023-03-18T11:56:44.149Z,13.67
2023-03-18T12:00:17.611Z,15.20
2023-03-18T12:03:35.531Z,14.20
2023-03-18T12:06:31.646Z,16.47
2023-03-18T12:09:38.700Z,15.17
2023-03-18T12:13:11.401Z,13.07
2023-03-18T12:16:15.189Z,15.00
2023-03-18T12:19:28.363Z,12.47
2023-03-18T12:22:32.799Z,12.17
2023-03-18T12:25:38.129Z,14.37
2023-03-18T12:28:55.783Z,12.77
2023-03-18T12:31:59.858Z,11.83
2023-03-18T12:35:20.660Z,11.27
2023-03-18T12:38:41.157Z,10.73
2023-03-18T12:41:46.005Z,13.40
2023-03-18T12:44:41.454Z,11.10
2023-03-18T12:47:56.395Z,9.93
2023-03-18T12:51:01.416Z,10.87
2023-03-18T12:53:55.800Z,16.70
2023-03-18T12:56:46.394Z,12.33
2023-03-18T12:59:43.296Z,10.93
2023-03-18T13:02:38.673Z,12.70
2023-03-18T13:05:45.600Z,9.70
2023-03-18T13:09:12.064Z,10.10
2023-03-18T13:12:33.526Z,9.37
2023-03-18T13:15:35.836Z,14.53
2023-03-18T13:18:40.039Z,10.87
2023-03-18T13:21:39.318Z,9.70
2023-03-18T13:24:31.149Z,11.07
2023-03-18T13:28:09.820Z,10.10
2023-03-18T13:31:07.688Z,9.10
2023-03-18T13:34:08.932Z,11.13
2023-03-18T13:37:27.828Z,10.90
2023-03-18T13:40:43.291Z,8.87
2023-03-18T13:43:33.109Z,7.53
2023-03-18T13:46:28.946Z,10.80
2023-03-18T13:49:21.194Z,9.13
2023-03-18T13:52:41.456Z,7.57
2023-03-18T13:55:40.144Z,5.97
2023-03-18T13:58:52.655Z,6.30
2023-03-18T14:01:50.835Z,6.87
2023-03-18T14:04:51.902Z,7.53
2023-03-18T14:07:49.731Z,4.77
2023-03-18T14:10:35.478Z,5.00
2023-03-18T14:13:36.110Z,5.43
2023-03-18T14:16:52.869Z,6.07
2023-03-18T14:19:45.110Z,4.43
2023-03-18T14:22:38.208Z,5.83
2023-03-18T14:25:40.960Z,4.67
2023-03-18T14:28:28.606Z,3.97
2023-03-18T14:31:32.479Z,4.60
2023-03-18T14:34:18.744Z,4.30
2023-03-18T14:37:32.582Z,6.63
2023-03-18T14:40:18.694Z,5.13
2023-03-18T14:43:16.674Z,4.63
2023-03-18T14:46:08.949Z,3.87
2023-03-18T14:48:54.766Z,5.67
2023-03-18T14:51:41.056Z,5.50
2023-03-18T14:54:27.668Z,6.50
2023-03-18T14:57:13.340Z,6.73
2023-03-18T15:00:00.301Z,5.50
2023-03-18T15:02:46.654Z,4.80
2023-03-18T15:05:40.913Z,6.30
2023-03-18T15:08:46.287Z,6.50
2023-03-18T15:11:44.475Z,8.13
2023-03-18T15:14:34.293Z,8.97
2023-03-18T15:17:20.643Z,6.23
2023-03-18T15:20:12.139Z,5.87
2023-03-18T15:22:58.469Z,7.30
2023-03-18T15:25:45.118Z,5.20
2023-03-18T15:28:31.612Z,7.03
2023-03-18T15:31:31.275Z,7.23
2023-03-18T15:34:31.449Z,5.97
2023-03-18T15:37:33.814Z,7.60
2023-03-18T15:40:32.896Z,6.93
2023-03-18T15:43:45.041Z,6.30
2023-03-18T15:46:32.568Z,5.90
2023-03-18T15:49:19.190Z,5.93
2023-03-18T15:52:08.569Z,6.77
2023-03-18T15:54:54.596Z,5.43
2023-03-18T15:57:43.456Z,6.47
2023-03-18T16:00:30.165Z,7.03
2023-03-18T16:03:23.501Z,9.30
2023-03-18T16:06:12.286Z,7.97
2023-03-18T16:08:58.276Z,6.37
2023-03-18T16:12:01.572Z,5.80
2023-03-18T16:14:50.020Z,8.07
2023-03-18T16:17:35.678Z,9.27
2023-03-18T16:20:27.543Z,7.90
2023-03-18T16:23:15.430Z,7.20
2023-03-18T16:26:02.193Z,6.37
2023-03-18T16:28:48.684Z,7.83
2023-03-18T16:31:34.587Z,9.23
2023-03-18T16:34:21.932Z,12.40
2023-03-18T16:37:25.840Z,8.47
2023-03-18T16:40:23.991Z,8.83
2023-03-18T16:43:23.266Z,9.37
2023-03-18T16:46:12.309Z,13.03
2023-03-18T16:48:58.336Z,10.00
2023-03-18T16:51:44.646Z,9.30
2023-03-18T16:54:33.405Z,10.90
2023-03-18T16:57:21.721Z,11.57
2023-03-18T17:00:23.554Z,11.27
2023-03-18T17:03:12.152Z,12.53
2023-03-18T17:06:02.786Z,10.97
2023-03-18T17:08:49.086Z,9.47
2023-03-18T17:11:34.835Z,10.87
2023-03-18T17:14:34.935Z,13.30
2023-03-18T17:17:33.828Z,11.83
2023-03-18T17:20:22.057Z,10.03
2023-03-18T17:23:16.587Z,11.17
2023-03-18T17:26:03.053Z,12.40
2023-03-18T17:28:50.250Z,10.57
2023-03-18T17:31:36.435Z,9.97
2023-03-18T17:34:23.892Z,10.70
2023-03-18T17:37:09.809Z,15.33
2023-03-18T17:39:56.483Z,15.03
2023-03-18T17:42:43.691Z,13.03
2023-03-18T17:45:33.923Z,9.93
2023-03-18T17:48:23.594Z,10.03
2023-03-18T17:51:17.201Z,9.87
2023-03-18T17:54:05.813Z,8.53
2023-03-18T17:56:52.987Z,11.17
2023-03-18T17:59:39.069Z,11.97
2023-03-18T18:02:24.918Z,9.93
2023-03-18T18:05:17.361Z,13.27
2023-03-18T18:08:03.965Z,11.73
2023-03-18T18:10:51.526Z,14.87
2023-03-18T18:13:38.164Z,10.83
2023-03-18T18:16:24.420Z,11.13
2023-03-18T18:19:14.429Z,10.40
2023-03-18T18:22:03.652Z,13.70
2023-03-18T18:24:50.444Z,11.30
2023-03-18T18:27:36.531Z,13.20
2023-03-18T18:30:24.620Z,17.93
2023-03-18T18:33:10.565Z,17.33
2023-03-18T18:35:57.040Z,14.03
2023-03-18T18:38:43.603Z,13.13
2023-03-18T18:41:29.665Z,14.23
2023-03-18T18:44:15.875Z,15.97
2023-03-18T18:47:01.722Z,13.57
2023-03-18T18:49:47.691Z,12.60
2023-03-18T18:52:34.263Z,12.63
2023-03-18T18:55:20.987Z,13.30
2023-03-18T18:58:18.150Z,17.17
2023-03-18T19:01:04.250Z,14.30
2023-03-18T19:03:49.988Z,17.70
2023-03-18T19:06:36.559Z,17.10
2023-03-18T19:09:25.217Z,18.93
2023-03-18T19:12:16.228Z,22.37
2023-03-18T19:15:02.737Z,21.30
2023-03-18T19:17:48.931Z,20.37
2023-03-18T19:20:34.977Z,20.80
2023-03-18T19:23:31.015Z,93.33
2023-03-18T19:26:18.465Z,23.50
2023-03-18T19:29:04.176Z,23.20
2023-03-18T19:31:50.514Z,24.00
2023-03-18T19:34:37.377Z,26.60
2023-03-18T19:37:32.448Z,24.97
2023-03-18T19:40:30.189Z,24.00
2023-03-18T19:43:18.769Z,26.93
2023-03-18T19:46:04.990Z,31.93
2023-03-18T19:48:51.123Z,24.47
2023-03-18T19:51:40.279Z,22.90
2023-03-18T19:54:36.977Z,25.80
2023-03-18T19:57:27.800Z,22.17
2023-03-18T20:00:25.735Z,18.97
2023-03-18T20:03:18.084Z,22.17
2023-03-18T20:06:04.969Z,19.90
2023-03-18T20:08:51.354Z,22.53
2023-03-18T20:11:37.755Z,23.83
2023-03-18T20:14:31.097Z,20.37
2023-03-18T20:17:39.541Z,21.20
2023-03-18T20:20:32.156Z,24.80
2023-03-18T20:23:22.833Z,24.10
2023-03-18T20:26:09.164Z,20.70
2023-03-18T20:28:56.458Z,21.87
2023-03-18T20:31:44.291Z,22.10
2023-03-18T20:34:31.246Z,19.43
2023-03-18T20:37:34.821Z,19.57
2023-03-18T20:40:26.509Z,22.80
2023-03-18T20:43:21.718Z,56.90
2023-03-18T20:46:12.691Z,26.43
2023-03-18T20:48:59.055Z,24.57
2023-03-18T20:51:45.846Z,22.00
2023-03-18T20:54:32.320Z,22.50
2023-03-18T20:57:19.249Z,18.27
2023-03-18T21:00:07.168Z,18.93
2023-03-18T21:02:57.650Z,18.73
2023-03-18T21:05:43.727Z,20.37
2023-03-18T21:08:32.136Z,19.63
2023-03-18T21:11:29.643Z,17.30
2023-03-18T21:14:16.152Z,21.30
2023-03-18T21:17:02.454Z,19.43
2023-03-18T21:19:50.247Z,18.83
2023-03-18T21:22:37.095Z,20.33
2023-03-18T21:25:28.387Z,20.67
2023-03-18T21:28:16.616Z,21.47
2023-03-18T21:31:03.135Z,22.73
2023-03-18T21:33:50.728Z,20.70
2023-03-18T21:36:36.775Z,22.90
2023-03-18T21:39:23.479Z,20.23
2023-03-18T21:42:57.702Z,26.13
2023-03-18T21:45:44.851Z,23.00
2023-03-18T21:48:32.130Z,21.90
2023-03-18T21:51:39.027Z,24.60
2023-03-18T21:54:26.200Z,22.60
2023-03-18T21:57:22.026Z,21.67
2023-03-18T22:00:16.392Z,22.47
2023-03-18T22:03:02.857Z,22.97
2023-03-18T22:05:51.611Z,26.07
2023-03-18T22:08:37.797Z,23.63
2023-03-18T22:11:23.592Z,23.23
2023-03-18T22:14:14.442Z,21.73
2023-03-18T22:17:00.481Z,22.97
2023-03-18T22:19:47.821Z,22.90
2023-03-18T22:22:37.203Z,22.20
2023-03-18T22:25:37.433Z,23.47
2023-03-18T22:28:25.981Z,22.63
2023-03-18T22:31:25.823Z,23.37
2023-03-18T22:34:23.496Z,26.00
2023-03-18T22:37:21.017Z,22.07
2023-03-18T22:40:10.865Z,24.47
2023-03-18T22:43:00.670Z,25.47
2023-03-18T22:45:46.758Z,26.97
2023-03-18T22:48:34.093Z,25.27
2023-03-18T22:51:28.422Z,25.23
2023-03-18T22:54:19.001Z,29.33
2023-03-18T22:57:05.568Z,25.13
2023-03-18T22:59:51.570Z,23.97
2023-03-18T23:02:37.886Z,37.70
2023-03-18T23:05:24.163Z,44.57
2023-03-18T23:08:10.550Z,38.40
2023-03-18T23:10:59.500Z,25.53
2023-03-18T23:13:50.168Z,28.40
2023-03-18T23:16:36.584Z,31.90
2023-03-18T23:19:22.572Z,27.90
2023-03-18T23:22:11.957Z,28.57
2023-03-18T23:24:58.399Z,36.10
2023-03-18T23:27:45.157Z,33.17
2023-03-18T23:30:34.995Z,38.17
2023-03-18T23:33:21.472Z,38.67
2023-03-18T23:36:08.420Z,35.20
2023-03-18T23:38:55.034Z,42.83
2023-03-18T23:41:41.500Z,40.27
2023-03-18T23:44:28.694Z,37.80
2023-03-18T23:47:16.800Z,37.67
2023-03-18T23:50:07.225Z,33.30
2023-03-18T23:52:52.977Z,34.13
2023-03-18T23:55:39.297Z,36.03
2023-03-18T23:58:25.454Z,37.87
